Create Tblcommutelog Verified Points Advance Search
| # | Trip ID | Id Commuter | Trip Date | Trip Num | Current Lat | Current Lng | Delta Distance | Current Time | Activity | Activity Confidence | Current Speed | |
|---|---|---|---|---|---|---|---|---|---|---|---|---|
| 71641 | 251118_784389_6428266_0706 | 784389 | (not set) | (not set) | 38.962259595529 | -77.425440491552 | 12.5831 | 2025-11-18 07:40:57 | in_vehicle | 100 | 8.2523447209134 | |
| 71642 | 251118_787692_16426629_0740 | 787692 | (not set) | (not set) | 39.235716234288 | -77.248001388722 | 0.1357 | 2025-11-18 07:41:06 | in_vehicle | 100 | 4.5374484787254 | |
| 71643 | 251118_761160_16483285_0733 | 761160 | (not set) | (not set) | 38.9132288 | -77.0220642 | 0.3506 | 2025-11-18 07:41:13 | still | 100 | 1.0281902956718 | |
| 71644 | 251118_782214_16456881_0738 | 782214 | (not set) | (not set) | 39.0408298 | -77.1737702 | 1.0291 | 2025-11-18 07:41:22 | in_vehicle | 100 | 5.2840040412349 | |
| 71645 | 251118_789454_16505281_0735 | 789454 | (not set) | (not set) | 38.916496905513 | -76.978939943912 | 1.4665 | 2025-11-18 07:41:28 | in_vehicle | 100 | -0.44703925898772 | |
| 71646 | 251118_775288_16502411_0738 | 775288 | (not set) | (not set) | 39.1906914 | -77.6954265 | 1.0163 | 2025-11-18 07:41:35 | in_vehicle | 100 | 5.7489248705821 | |
| 71647 | 251118_785822_16514312_0730 | 785822 | (not set) | (not set) | 38.94386707317 | -76.972947893382 | 1.9675 | 2025-11-18 07:41:42 | on_bicycle | 100 | 4.0904092197377 | |
| 71648 | 251118_775525_16655627_0727 | 775525 | (not set) | (not set) | 38.825546474547 | -77.062231561966 | 0.9822 | 2025-11-18 07:41:50 | still | 33 | -0.44703925898772 | |
| 71649 | 251118_775525_16655627_0727 | 775525 | (not set) | (not set) | 38.825367562862 | -77.062285059923 | 1.7371 | 2025-11-18 07:41:50 | still | 33 | 2.3916600355843 | |
| 71650 | 251118_789453_16505281_0734 | 789453 | (not set) | (not set) | 38.917217667222 | -76.976143821995 | 1.665 | 2025-11-18 07:41:58 | in_vehicle | 100 | 5.8428031149696 | |
| 71651 | 251118_788974_16505281_0734 | 788974 | (not set) | (not set) | 38.917254945744 | -76.97548845202 | 1.6701 | 2025-11-18 07:42:03 | in_vehicle | 100 | 5.2527112931058 | |
| 71652 | 251118_786932_16444065_0726 | 786932 | (not set) | (not set) | 39.30266195 | -76.545958866667 | 2.8057 | 2025-11-18 07:42:09 | in_vehicle | 100 | 13.616815828766 | |
| 71653 | 251118_789453_16505281_0734 | 789453 | (not set) | (not set) | 38.917261531084 | -76.973829179002 | 1.7898 | 2025-11-18 07:42:18 | in_vehicle | 100 | 2.9951630352178 | |
| 71654 | 251118_789022_0_0726 | 789022 | (not set) | (not set) | 38.794114458959 | -77.0183603818 | 8.185 | 2025-11-18 07:42:24 | in_vehicle | 100 | 13.916332132288 | |
| 71655 | 251118_731669_16507744_0656 | 731669 | (not set) | (not set) | 38.780847899745 | -77.387374077388 | 14.6091 | 2025-11-18 07:42:33 | in_vehicle | 100 | 9.7052223126235 | |
| 71656 | 251118_788381_16460160_0708 | 788381 | (not set) | (not set) | 38.901860259178 | -77.020934131507 | 8.7029 | 2025-11-18 07:42:41 | in_vehicle | 100 | 5.1454218709487 | |
| 71657 | 251118_777375_16513753_0655 | 777375 | (not set) | (not set) | 39.085689902293 | -76.706972863603 | 15.3974 | 2025-11-18 07:42:49 | unknown | 100 | 7.0855722549554 | |
| 71658 | 251118_788974_16505281_0734 | 788974 | (not set) | (not set) | 38.917267209108 | -76.973704495175 | 1.766 | 2025-11-18 07:42:56 | in_vehicle | 100 | 0 | |
| 71659 | 251118_784389_6428266_0706 | 784389 | (not set) | (not set) | 38.953887090344 | -77.394527493449 | 14.3587 | 2025-11-18 07:43:05 | in_vehicle | 100 | 12.213112555545 | |
| 71660 | 251118_782214_16456881_0738 | 782214 | (not set) | (not set) | 39.0415081 | -77.1679812 | 1.3459 | 2025-11-18 07:43:12 | in_vehicle | 100 | 6.0573819592837 |